Wetterdaten: Woche 05.10.15 - 11.10.15 (KW41)
Datum Zeit Temp. A. Feuchte A. Luftdruck Regen Wind Richtung Taupunkt Windchill Windben
05.10.2015 00:00 13,2 C 82 % 1015,8 hPa 0,3 l/m 2,3 km/h N 10,2 C 13,2 C 12,4 km/h
05.10.2015 01:00 13,3 C 81 % 1016,0 hPa 0,0 l/m 1,8 km/h N 10,1 C 13,3 C 10,9 km/h
05.10.2015 02:00 12,9 C 81 % 1015,9 hPa 0,0 l/m 0,1 km/h N 9,8 C 12,9 C 2,0 km/h
05.10.2015 03:00 13,0 C 82 % 1015,9 hPa 0,0 l/m 0,7 km/h N 9,9 C 13,0 C 4,4 km/h
05.10.2015 04:00 13,3 C 80 % 1015,8 hPa 0,0 l/m 1,3 km/h N 10,0 C 13,3 C 6,8 km/h
05.10.2015 05:00 13,5 C 80 % 1016,1 hPa 0,0 l/m 1,4 km/h N 10,1 C 13,5 C 10,5 km/h
05.10.2015 06:00 13,9 C 77 % 1016,1 hPa 0,0 l/m 2,8 km/h N 9,9 C 13,9 C 15,7 km/h
05.10.2015 07:00 13,6 C 77 % 1016,2 hPa 0,0 l/m 0,2 km/h N 9,7 C 13,6 C 3,6 km/h
05.10.2015 08:00 14,0 C 78 % 1016,4 hPa 0,0 l/m 1,3 km/h N 10,1 C 14,0 C 5,2 km/h
05.10.2015 09:00 14,8 C 75 % 1016,5 hPa 0,0 l/m 7,4 km/h N 10,4 C 14,1 C 18,9 km/h
05.10.2015 10:00 16,2 C 72 % 1016,4 hPa 0,0 l/m 6,9 km/h N 11,0 C 15,7 C 18,5 km/h
05.10.2015 11:00 17,2 C 71 % 1016,2 hPa 0,0 l/m 8,1 km/h N 11,9 C 16,4 C 20,9 km/h
05.10.2015 12:00 17,5 C 71 % 1015,9 hPa 0,0 l/m 6,2 km/h N 12,3 C 17,5 C 17,7 km/h
05.10.2015 13:00 18,1 C 70 % 1015,8 hPa 0,0 l/m 7,1 km/h N 12,5 C 17,7 C 21,3 km/h
05.10.2015 14:00 18,5 C 68 % 1015,6 hPa 0,0 l/m 4,9 km/h N 12,5 C 18,5 C 14,5 km/h
05.10.2015 15:00 19,1 C 65 % 1015,1 hPa 0,0 l/m 3,7 km/h N 12,3 C 19,1 C 13,7 km/h
05.10.2015 16:00 19,2 C 65 % 1014,6 hPa 0,0 l/m 2,9 km/h N 12,5 C 19,2 C 10,9 km/h
05.10.2015 17:00 18,9 C 67 % 1014,5 hPa 0,0 l/m 0,6 km/h N 12,5 C 18,9 C 6,4 km/h
05.10.2015 18:00 17,9 C 71 % 1014,4 hPa 0,0 l/m 0,0 km/h N 12,4 C 17,9 C 0,4 km/h
05.10.2015 19:00 15,3 C 76 % 1014,8 hPa 0,0 l/m 0,0 km/h N 11,0 C 15,3 C 0,0 km/h
05.10.2015 20:00 13,3 C 80 % 1014,8 hPa 0,0 l/m 0,0 km/h N 9,9 C 13,3 C 0,0 km/h
05.10.2015 21:00 12,1 C 82 % 1014,9 hPa 0,0 l/m 0,0 km/h N 9,0 C 12,1 C 0,0 km/h
05.10.2015 22:00 11,6 C 82 % 1014,7 hPa 0,0 l/m 0,0 km/h N 8,6 C 11,6 C 0,8 km/h
05.10.2015 23:00 10,9 C 82 % 1014,4 hPa 0,0 l/m 0,0 km/h N 8,0 C 10,9 C 0,0 km/h
06.10.2015 00:00 10,5 C 82 % 1014,0 hPa 0,0 l/m 0,0 km/h N 7,6 C 10,5 C 0,0 km/h
06.10.2015 01:00 10,2 C 82 % 1013,2 hPa 0,0 l/m 0,0 km/h N 7,3 C 10,2 C 0,0 km/h
06.10.2015 02:00 9,6 C 82 % 1012,7 hPa 0,0 l/m 0,0 km/h N 6,7 C 9,6 C 0,0 km/h
06.10.2015 03:00 9,0 C 82 % 1012,2 hPa 0,0 l/m 0,0 km/h N 6,1 C 9,0 C 0,0 km/h
06.10.2015 04:00 8,4 C 82 % 1011,8 hPa 0,0 l/m 0,0 km/h N 5,5 C 8,4 C 0,0 km/h
06.10.2015 05:00 7,9 C 82 % 1011,5 hPa 0,0 l/m 0,0 km/h N 5,0 C 7,9 C 0,0 km/h
06.10.2015 06:00 7,8 C 82 % 1011,4 hPa 0,0 l/m 0,0 km/h N 4,9 C 7,8 C 0,0 km/h
06.10.2015 07:00 8,4 C 81 % 1011,7 hPa 0,0 l/m 0,0 km/h N 5,3 C 8,4 C 0,0 km/h
06.10.2015 08:00 9,7 C 80 % 1011,8 hPa 0,0 l/m 0,1 km/h N 6,5 C 9,7 C 0,8 km/h
06.10.2015 09:00 11,7 C 79 % 1011,9 hPa 0,0 l/m 0,2 km/h N 8,2 C 11,7 C 2,0 km/h
06.10.2015 10:00 13,2 C 79 % 1011,7 hPa 0,0 l/m 0,1 km/h N 9,6 C 13,2 C 3,6 km/h
06.10.2015 11:00 14,4 C 79 % 1011,4 hPa 0,0 l/m 0,2 km/h N 10,8 C 14,4 C 3,2 km/h
06.10.2015 12:00 16,7 C 80 % 1010,8 hPa 0,0 l/m 1,3 km/h N 13,1 C 16,7 C 8,4 km/h
06.10.2015 13:00 18,6 C 74 % 1010,2 hPa 0,0 l/m 0,8 km/h N 13,8 C 18,6 C 6,8 km/h
06.10.2015 14:00 18,6 C 75 % 1009,5 hPa 0,0 l/m 0,8 km/h N 14,1 C 18,6 C 7,2 km/h
06.10.2015 15:00 18,8 C 73 % 1009,1 hPa 0,0 l/m 1,6 km/h N 13,9 C 18,8 C 9,3 km/h
06.10.2015 16:00 18,6 C 74 % 1008,8 hPa 0,0 l/m 0,6 km/h N 13,9 C 18,6 C 8,0 km/h
06.10.2015 17:00 18,4 C 76 % 1008,7 hPa 0,0 l/m 0,4 km/h N 14,1 C 18,4 C 6,8 km/h
06.10.2015 18:00 17,1 C 79 % 1008,8 hPa 0,0 l/m 0,2 km/h N 13,4 C 17,1 C 6,0 km/h
06.10.2015 19:00 16,1 C 81 % 1009,1 hPa 0,0 l/m 0,1 km/h N 12,8 C 16,1 C 1,6 km/h
06.10.2015 20:00 15,0 C 82 % 1008,9 hPa 0,0 l/m 0,0 km/h N 11,9 C 15,0 C 0,0 km/h
06.10.2015 21:00 14,0 C 82 % 1008,8 hPa 0,0 l/m 0,0 km/h N 11,0 C 14,0 C 0,0 km/h
06.10.2015 22:00 14,5 C 81 % 1008,8 hPa 0,0 l/m 0,5 km/h N 11,3 C 14,5 C 5,6 km/h
06.10.2015 23:00 15,2 C 82 % 1008,9 hPa 0,0 l/m 0,8 km/h N 12,1 C 15,2 C 8,4 km/h
07.10.2015 00:00 15,2 C 82 % 1008,7 hPa 0,0 l/m 0,2 km/h N 12,1 C 15,2 C 5,2 km/h
07.10.2015 01:00 15,0 C 82 % 1008,8 hPa 0,0 l/m 0,2 km/h N 11,8 C 15,0 C 2,4 km/h
07.10.2015 02:00 14,9 C 82 % 1009,0 hPa 0,0 l/m 0,0 km/h N 11,8 C 14,9 C 0,8 km/h
07.10.2015 03:00 14,8 C 82 % 1009,1 hPa 0,0 l/m 0,0 km/h N 11,7 C 14,8 C 0,0 km/h
07.10.2015 04:00 14,5 C 82 % 1009,1 hPa 0,0 l/m 0,0 km/h N 11,4 C 14,5 C 0,4 km/h
07.10.2015 05:00 14,4 C 81 % 1009,4 hPa 0,0 l/m 0,0 km/h N 11,2 C 14,4 C 0,4 km/h
07.10.2015 06:00 14,4 C 81 % 1009,5 hPa 0,0 l/m 0,0 km/h N 11,2 C 14,4 C 0,0 km/h
07.10.2015 07:00 14,4 C 81 % 1009,9 hPa 0,0 l/m 0,0 km/h N 11,2 C 14,4 C 0,0 km/h
07.10.2015 08:00 14,3 C 81 % 1010,5 hPa 0,3 l/m 0,2 km/h N 11,1 C 14,3 C 2,4 km/h
07.10.2015 09:00 14,1 C 81 % 1011,0 hPa 0,0 l/m 0,2 km/h N 10,9 C 14,1 C 4,0 km/h
07.10.2015 10:00 13,9 C 80 % 1011,4 hPa 0,5 l/m 0,1 km/h N 10,6 C 13,9 C 2,0 km/h
07.10.2015 11:00 14,2 C 80 % 1011,7 hPa 2,1 l/m 0,0 km/h N 10,8 C 14,2 C 0,8 km/h
07.10.2015 12:00 14,4 C 80 % 1011,9 hPa 2,3 l/m 0,3 km/h N 11,0 C 14,4 C 4,8 km/h
07.10.2015 13:00 14,6 C 79 % 1012,0 hPa 1,3 l/m 0,3 km/h N 10,9 C 14,6 C 3,2 km/h
07.10.2015 14:00 14,6 C 79 % 1012,1 hPa 1,6 l/m 0,3 km/h N 11,0 C 14,6 C 2,8 km/h
07.10.2015 15:00 14,7 C 79 % 1012,3 hPa 2,1 l/m 0,1 km/h N 11,1 C 14,7 C 2,4 km/h
07.10.2015 16:00 14,7 C 79 % 1012,4 hPa 0,3 l/m 0,1 km/h N 11,1 C 14,7 C 3,2 km/h
07.10.2015 17:00 14,6 C 79 % 1012,5 hPa 0,0 l/m 0,1 km/h N 11,0 C 14,6 C 2,0 km/h
07.10.2015 18:00 14,3 C 79 % 1012,7 hPa 0,0 l/m 0,0 km/h N 10,8 C 14,3 C 0,0 km/h
07.10.2015 19:00 14,2 C 79 % 1013,3 hPa 0,0 l/m 0,0 km/h N 10,6 C 14,2 C 0,0 km/h
07.10.2015 20:00 14,1 C 78 % 1013,5 hPa 0,0 l/m 0,0 km/h N 10,4 C 14,1 C 0,0 km/h
07.10.2015 21:00 14,2 C 79 % 1013,6 hPa 0,0 l/m 0,0 km/h N 10,5 C 14,2 C 0,0 km/h
07.10.2015 22:00 14,1 C 78 % 1014,0 hPa 0,0 l/m 0,0 km/h N 10,3 C 14,1 C 0,0 km/h
07.10.2015 23:00 14,1 C 78 % 1014,2 hPa 0,3 l/m 0,0 km/h N 10,3 C 14,1 C 0,0 km/h
08.10.2015 00:00 14,1 C 78 % 1014,2 hPa 0,3 l/m 0,0 km/h N 10,3 C 14,1 C 0,0 km/h
08.10.2015 01:00 14,1 C 78 % 1014,1 hPa 0,0 l/m 0,0 km/h N 10,3 C 14,1 C 0,0 km/h
08.10.2015 02:00 14,0 C 78 % 1014,0 hPa 0,0 l/m 0,0 km/h N 10,2 C 14,0 C 0,0 km/h
08.10.2015 03:00 14,0 C 78 % 1014,0 hPa 0,3 l/m 0,0 km/h N 10,2 C 14,0 C 0,0 km/h
08.10.2015 04:00 14,0 C 78 % 1014,0 hPa 0,0 l/m 0,0 km/h N 10,2 C 14,0 C 0,0 km/h
08.10.2015 05:00 13,9 C 77 % 1014,2 hPa 2,6 l/m 0,1 km/h N 9,9 C 13,9 C 0,8 km/h
08.10.2015 06:00 13,9 C 77 % 1014,3 hPa 0,3 l/m 0,0 km/h N 9,9 C 13,9 C 0,0 km/h
08.10.2015 07:00 13,8 C 77 % 1014,5 hPa 1,8 l/m 0,0 km/h N 9,9 C 13,8 C 1,6 km/h
08.10.2015 08:00 13,7 C 77 % 1014,9 hPa 0,5 l/m 0,0 km/h N 9,7 C 13,7 C 0,4 km/h
08.10.2015 09:00 13,5 C 78 % 1015,3 hPa 0,0 l/m 0,3 km/h N 9,6 C 13,5 C 2,4 km/h
08.10.2015 10:00 13,4 C 77 % 1015,5 hPa 0,3 l/m 1,7 km/h N 9,5 C 13,4 C 10,1 km/h
08.10.2015 11:00 13,6 C 79 % 1015,8 hPa 0,0 l/m 3,7 km/h N 10,0 C 13,6 C 16,9 km/h
08.10.2015 12:00 14,2 C 82 % 1016,3 hPa 0,0 l/m 3,9 km/h N 11,2 C 14,1 C 19,3 km/h
08.10.2015 13:00 14,5 C 82 % 1016,4 hPa 0,0 l/m 4,1 km/h N 11,3 C 14,4 C 18,5 km/h
08.10.2015 14:00 14,6 C 81 % 1016,3 hPa 0,0 l/m 5,9 km/h N 11,4 C 14,2 C 20,1 km/h
08.10.2015 15:00 14,3 C 81 % 1016,2 hPa 0,0 l/m 7,8 km/h N 11,1 C 13,5 C 24,5 km/h
08.10.2015 16:00 14,0 C 81 % 1016,3 hPa 0,0 l/m 6,5 km/h N 10,9 C 13,8 C 22,9 km/h
08.10.2015 17:00 13,8 C 82 % 1016,5 hPa 0,3 l/m 6,1 km/h N 10,7 C 13,6 C 19,7 km/h
08.10.2015 18:00 13,4 C 82 % 1016,6 hPa 0,0 l/m 6,8 km/h N 10,4 C 13,1 C 23,7 km/h
08.10.2015 19:00 13,3 C 82 % 1016,9 hPa 0,0 l/m 5,2 km/h N 10,3 C 13,3 C 18,1 km/h
08.10.2015 20:00 13,4 C 82 % 1017,1 hPa 0,0 l/m 5,7 km/h N 10,4 C 13,4 C 20,9 km/h
08.10.2015 21:00 13,6 C 82 % 1017,4 hPa 0,3 l/m 9,0 km/h N 10,5 C 12,0 C 22,1 km/h
08.10.2015 22:00 13,4 C 82 % 1017,6 hPa 0,0 l/m 6,5 km/h N 10,4 C 13,2 C 18,5 km/h
08.10.2015 23:00 13,6 C 82 % 1017,9 hPa 0,3 l/m 7,8 km/h N 10,6 C 12,7 C 20,5 km/h
09.10.2015 00:00 13,3 C 82 % 1018,0 hPa 0,5 l/m 4,2 km/h N 10,3 C 13,3 C 15,7 km/h
09.10.2015 01:00 13,2 C 82 % 1018,1 hPa 0,0 l/m 3,3 km/h N 10,1 C 13,2 C 11,7 km/h
09.10.2015 02:00 13,2 C 82 % 1018,2 hPa 0,0 l/m 1,4 km/h N 10,2 C 13,2 C 9,3 km/h
09.10.2015 03:00 13,1 C 82 % 1018,2 hPa 0,0 l/m 0,0 km/h N 10,1 C 13,1 C 0,8 km/h
09.10.2015 04:00 13,0 C 83 % 1017,9 hPa 0,0 l/m 0,0 km/h N 10,1 C 13,0 C 0,0 km/h
09.10.2015 05:00 13,3 C 82 % 1017,9 hPa 0,0 l/m 1,1 km/h N 10,2 C 13,3 C 6,4 km/h
09.10.2015 06:00 13,4 C 82 % 1017,8 hPa 0,0 l/m 2,2 km/h N 10,4 C 13,4 C 8,4 km/h
09.10.2015 07:00 13,4 C 82 % 1017,8 hPa 0,0 l/m 1,6 km/h N 10,4 C 13,4 C 8,8 km/h
09.10.2015 08:00 13,7 C 82 % 1018,3 hPa 0,0 l/m 3,3 km/h N 10,7 C 13,7 C 12,1 km/h
09.10.2015 09:00 14,1 C 82 % 1018,6 hPa 0,0 l/m 2,5 km/h N 11,1 C 14,1 C 10,1 km/h
09.10.2015 10:00 14,4 C 81 % 1018,8 hPa 0,0 l/m 3,3 km/h N 11,3 C 14,4 C 12,9 km/h
09.10.2015 11:00 14,5 C 81 % 1018,9 hPa 0,0 l/m 3,7 km/h N 11,2 C 14,5 C 11,8 km/h
09.10.2015 12:00 15,7 C 79 % 1018,5 hPa 0,0 l/m 6,2 km/h N 12,1 C 15,4 C 14,5 km/h
09.10.2015 13:00 15,9 C 78 % 1018,4 hPa 0,0 l/m 4,4 km/h N 12,1 C 15,9 C 12,5 km/h
09.10.2015 14:00 15,5 C 79 % 1018,2 hPa 0,0 l/m 1,7 km/h N 11,9 C 15,5 C 8,0 km/h
09.10.2015 15:00 15,0 C 82 % 1018,3 hPa 0,0 l/m 0,9 km/h N 11,8 C 15,0 C 7,3 km/h
09.10.2015 16:00 14,8 C 82 % 1018,2 hPa 0,0 l/m 0,5 km/h N 11,8 C 14,8 C 4,8 km/h
09.10.2015 17:00 14,6 C 82 % 1018,3 hPa 0,0 l/m 0,4 km/h N 11,6 C 14,6 C 3,2 km/h
09.10.2015 18:00 14,1 C 82 % 1018,7 hPa 0,0 l/m 0,1 km/h N 11,1 C 14,1 C 0,8 km/h
09.10.2015 19:00 13,6 C 82 % 1019,1 hPa 0,0 l/m 0,1 km/h N 10,6 C 13,6 C 2,8 km/h
09.10.2015 20:00 12,9 C 82 % 1019,2 hPa 0,0 l/m 1,2 km/h N 9,9 C 12,9 C 6,4 km/h
09.10.2015 21:00 12,6 C 82 % 1019,5 hPa 0,0 l/m 0,9 km/h N 9,6 C 12,6 C 4,8 km/h
09.10.2015 22:00 12,1 C 80 % 1019,6 hPa 0,0 l/m 0,6 km/h N 8,8 C 12,1 C 4,0 km/h
09.10.2015 23:00 11,7 C 80 % 1019,5 hPa 0,0 l/m 0,5 km/h N 8,3 C 11,7 C 3,2 km/h
10.10.2015 00:00 11,1 C 80 % 1019,2 hPa 0,0 l/m 0,8 km/h N 7,8 C 11,1 C 4,4 km/h
10.10.2015 01:00 10,5 C 78 % 1019,3 hPa 0,0 l/m 0,9 km/h N 6,7 C 10,5 C 6,0 km/h
10.10.2015 02:00 10,1 C 75 % 1019,2 hPa 0,0 l/m 0,2 km/h N 5,9 C 10,1 C 3,6 km/h
10.10.2015 03:00 9,5 C 76 % 1019,3 hPa 0,0 l/m 0,2 km/h N 5,5 C 9,5 C 2,4 km/h
10.10.2015 04:00 8,6 C 80 % 1019,2 hPa 0,0 l/m 0,1 km/h N 5,4 C 8,6 C 1,6 km/h
10.10.2015 05:00 8,4 C 83 % 1018,8 hPa 0,0 l/m 0,6 km/h N 5,7 C 8,4 C 4,0 km/h
10.10.2015 06:00 8,6 C 83 % 1018,5 hPa 0,0 l/m 0,8 km/h N 5,8 C 8,6 C 5,6 km/h
10.10.2015 07:00 8,7 C 82 % 1018,6 hPa 0,0 l/m 1,0 km/h N 5,8 C 8,7 C 6,4 km/h
10.10.2015 08:00 8,6 C 83 % 1018,8 hPa 0,0 l/m 0,8 km/h N 5,8 C 8,6 C 7,2 km/h
10.10.2015 09:00 8,6 C 82 % 1018,9 hPa 0,0 l/m 1,0 km/h N 5,8 C 8,6 C 7,2 km/h
10.10.2015 10:00 8,9 C 82 % 1018,8 hPa 0,0 l/m 2,3 km/h N 6,0 C 8,9 C 7,2 km/h
10.10.2015 11:00 9,3 C 82 % 1018,5 hPa 0,0 l/m 1,8 km/h N 6,4 C 9,3 C 7,6 km/h
10.10.2015 12:00 9,9 C 81 % 1018,3 hPa 0,0 l/m 1,0 km/h N 6,7 C 9,9 C 7,2 km/h
10.10.2015 13:00 10,8 C 79 % 1017,8 hPa 0,0 l/m 0,2 km/h N 7,2 C 10,8 C 2,8 km/h
10.10.2015 14:00 10,7 C 78 % 1017,3 hPa 0,0 l/m 0,9 km/h N 7,0 C 10,7 C 6,4 km/h
10.10.2015 15:00 10,4 C 79 % 1016,9 hPa 0,0 l/m 0,7 km/h N 6,9 C 10,4 C 5,2 km/h
10.10.2015 16:00 10,3 C 80 % 1016,4 hPa 0,0 l/m 0,4 km/h N 7,1 C 10,3 C 5,2 km/h
10.10.2015 17:00 10,0 C 81 % 1016,3 hPa 0,0 l/m 0,9 km/h N 6,9 C 10,0 C 6,4 km/h
10.10.2015 18:00 9,6 C 82 % 1016,3 hPa 0,0 l/m 1,0 km/h N 6,7 C 9,6 C 6,8 km/h
10.10.2015 19:00 9,2 C 83 % 1016,5 hPa 0,0 l/m 1,3 km/h N 6,3 C 9,2 C 7,2 km/h
10.10.2015 20:00 8,5 C 83 % 1016,3 hPa 1,0 l/m 1,6 km/h N 5,7 C 8,5 C 7,2 km/h
10.10.2015 21:00 8,2 C 82 % 1016,2 hPa 0,5 l/m 1,7 km/h N 5,3 C 8,2 C 8,4 km/h
10.10.2015 22:00 7,8 C 82 % 1016,1 hPa 1,0 l/m 1,5 km/h N 4,9 C 7,8 C 8,0 km/h
10.10.2015 23:00 7,6 C 81 % 1015,5 hPa 1,6 l/m 1,8 km/h N 4,5 C 7,6 C 9,3 km/h
11.10.2015 00:00 7,3 C 81 % 1014,8 hPa 1,0 l/m 2,3 km/h N 4,2 C 7,3 C 9,7 km/h
11.10.2015 01:00 6,8 C 81 % 1014,3 hPa 1,0 l/m 2,4 km/h N 3,8 C 6,8 C 10,5 km/h
11.10.2015 02:00 6,8 C 81 % 1013,9 hPa 1,0 l/m 2,5 km/h N 3,7 C 6,8 C 12,1 km/h
11.10.2015 03:00 6,6 C 82 % 1013,4 hPa 1,6 l/m 2,2 km/h N 3,6 C 6,6 C 8,4 km/h
11.10.2015 04:00 6,3 C 82 % 1013,0 hPa 1,0 l/m 2,2 km/h N 3,4 C 6,3 C 10,1 km/h
11.10.2015 05:00 5,6 C 82 % 1013,1 hPa 1,0 l/m 3,1 km/h N 2,8 C 5,6 C 13,7 km/h
11.10.2015 06:00 5,0 C 83 % 1013,2 hPa 1,0 l/m 3,7 km/h N 2,3 C 5,0 C 16,5 km/h
11.10.2015 07:00 4,5 C 83 % 1012,9 hPa 0,0 l/m 5,0 km/h N 1,9 C 4,5 C 8,4 km/h
11.10.2015 08:00 4,5 C 83 % 1013,1 hPa 0,0 l/m 4,8 km/h N 1,9 C 4,5 C 4,8 km/h
11.10.2015 09:00 4,8 C 82 % 1013,6 hPa 0,0 l/m 7,7 km/h N 2,0 C 3,7 C 22,5 km/h
11.10.2015 10:00 5,5 C 78 % 1013,8 hPa 0,0 l/m 7,1 km/h N 2,0 C 4,7 C 18,9 km/h
11.10.2015 11:00 6,4 C 76 % 1013,7 hPa 0,0 l/m 8,4 km/h N 2,4 C 4,8 C 20,5 km/h
11.10.2015 12:00 6,9 C 72 % 1013,7 hPa 0,0 l/m 8,6 km/h N 2,1 C 5,1 C 21,7 km/h
11.10.2015 13:00 7,6 C 70 % 1013,5 hPa 0,0 l/m 8,5 km/h N 2,5 C 6,0 C 22,9 km/h
11.10.2015 14:00 7,9 C 68 % 1013,4 hPa 0,0 l/m 8,3 km/h N 2,3 C 6,5 C 22,9 km/h
11.10.2015 15:00 8,4 C 67 % 1013,4 hPa 0,0 l/m 8,4 km/h N 2,6 C 6,9 C 21,3 km/h
11.10.2015 16:00 8,6 C 66 % 1013,8 hPa 0,0 l/m 8,6 km/h N 2,5 C 6,9 C 21,7 km/h
11.10.2015 17:00 8,3 C 64 % 1014,1 hPa 0,0 l/m 7,7 km/h N 1,8 C 7,3 C 20,9 km/h
11.10.2015 18:00 8,0 C 64 % 1014,4 hPa 0,0 l/m 7,1 km/h N 1,5 C 7,4 C 22,1 km/h
11.10.2015 19:00 7,9 C 61 % 1014,7 hPa 0,0 l/m 8,1 km/h N 0,8 C 6,6 C 20,5 km/h
11.10.2015 20:00 7,7 C 62 % 1015,0 hPa 0,0 l/m 7,6 km/h N 0,8 C 6,7 C 19,7 km/h
11.10.2015 21:00 7,2 C 63 % 1015,3 hPa 0,0 l/m 7,9 km/h N 0,5 C 6,0 C 20,5 km/h
11.10.2015 22:00 6,5 C 64 % 1015,5 hPa 0,0 l/m 7,3 km/h N 0,1 C 5,7 C 20,1 km/h
11.10.2015 23:00 5,7 C 64 % 1015,8 hPa 0,0 l/m 6,3 km/h N -0,6 C 5,4 C 18,9 km/h
Min-Datum _ 11.10.15 11.10.15 06.10.15 - 05.10.15 - 11.10.15 11.10.15 05.10.15
_ Min-Zeit 07:15 19:45 16:45 - 02:00 - 23:30 09:15 02:30
Minimum _ 4,5 C 60 % 1008,6 hPa - 0,0 km/h - -0,7 C 3,1 C 0,0 km/h
Max-Datum _ 05.10.15 09.10.15 09.10.15 08.10.15 05.10.15 - 06.10.15 05.10.15 08.10.15
_ Max-Zeit 15:45 04:15 22:45 05:15 10:45 - 14:15 15:30 18:30
Maximum _ 19,4 C 84 % 1019,7 hPa 2,6 l/m 10,3 km/h
N
- 14,3 C 19,3 C 30,6 km/h
N
Durchschnitt _ 12,4 C 79 % 1014,8 hPa #30,2 l/m 2,2 km/h N 8,7 C 12,2 C 8,0 km/h